sensor_id;sensor_type;location;lat;lon;timestamp;temperature;humidity
39237;DHT22;36851;49.996;8.268;2022-11-14T00:00:49;18.70;99.90
39237;DHT22;36851;49.996;8.268;2022-11-14T00:03:35;18.70;99.90
39237;DHT22;36851;49.996;8.268;2022-11-14T00:06:20;18.60;99.90
39237;DHT22;36851;49.996;8.268;2022-11-14T00:09:06;18.60;99.90
39237;DHT22;36851;49.996;8.268;2022-11-14T00:11:51;18.60;99.90
39237;DHT22;36851;49.996;8.268;2022-11-14T00:14:37;18.60;99.90
39237;DHT22;36851;49.996;8.268;2022-11-14T00:17:22;18.60;99.90
39237;DHT22;36851;49.996;8.268;2022-11-14T00:20:09;18.60;99.90
39237;DHT22;36851;49.996;8.268;2022-11-14T00:22:55;18.50;99.90
39237;DHT22;36851;49.996;8.268;2022-11-14T00:25:45;18.60;99.90
39237;DHT22;36851;49.996;8.268;2022-11-14T00:28:31;18.50;99.90
39237;DHT22;36851;49.996;8.268;2022-11-14T00:31:17;18.50;99.90
39237;DHT22;36851;49.996;8.268;2022-11-14T00:34:02;18.50;99.90
39237;DHT22;36851;49.996;8.268;2022-11-14T00:36:48;18.50;99.90
39237;DHT22;36851;49.996;8.268;2022-11-14T00:39:34;18.50;99.90
39237;DHT22;36851;49.996;8.268;2022-11-14T00:42:19;18.50;99.90
39237;DHT22;36851;49.996;8.268;2022-11-14T00:45:05;18.40;99.90
39237;DHT22;36851;49.996;8.268;2022-11-14T00:47:50;18.40;99.90
39237;DHT22;36851;49.996;8.268;2022-11-14T00:50:36;18.40;99.90
39237;DHT22;36851;49.996;8.268;2022-11-14T00:53:22;18.40;99.90
39237;DHT22;36851;49.996;8.268;2022-11-14T00:56:07;18.40;99.90
39237;DHT22;36851;49.996;8.268;2022-11-14T00:58:53;18.40;99.90
39237;DHT22;36851;49.996;8.268;2022-11-14T01:01:39;18.30;99.90
39237;DHT22;36851;49.996;8.268;2022-11-14T01:04:24;18.30;99.90
39237;DHT22;36851;49.996;8.268;2022-11-14T01:07:09;18.30;99.90
39237;DHT22;36851;49.996;8.268;2022-11-14T01:09:55;18.30;99.90
39237;DHT22;36851;49.996;8.268;2022-11-14T01:12:40;18.30;99.90
39237;DHT22;36851;49.996;8.268;2022-11-14T01:15:26;18.30;99.90
39237;DHT22;36851;49.996;8.268;2022-11-14T01:18:13;18.30;99.90
39237;DHT22;36851;49.996;8.268;2022-11-14T01:20:59;18.20;99.90
39237;DHT22;36851;49.996;8.268;2022-11-14T01:23:44;18.20;99.90
39237;DHT22;36851;49.996;8.268;2022-11-14T01:26:29;18.20;99.90
39237;DHT22;36851;49.996;8.268;2022-11-14T01:29:15;18.20;99.90
39237;DHT22;36851;49.996;8.268;2022-11-14T01:32:01;18.20;99.90
39237;DHT22;36851;49.996;8.268;2022-11-14T01:34:46;18.20;99.90
39237;DHT22;36851;49.996;8.268;2022-11-14T01:37:32;18.20;99.90
39237;DHT22;36851;49.996;8.268;2022-11-14T01:40:17;18.20;99.90
39237;DHT22;36851;49.996;8.268;2022-11-14T01:46:04;18.20;99.90
39237;DHT22;36851;49.996;8.268;2022-11-14T01:48:51;18.10;99.90
39237;DHT22;36851;49.996;8.268;2022-11-14T01:51:42;18.10;99.90
39237;DHT22;36851;49.996;8.268;2022-11-14T01:54:33;18.10;99.90
39237;DHT22;36851;49.996;8.268;2022-11-14T01:57:20;18.10;99.90
39237;DHT22;36851;49.996;8.268;2022-11-14T02:00:08;18.10;99.90
39237;DHT22;36851;49.996;8.268;2022-11-14T02:02:54;18.10;99.90
39237;DHT22;36851;49.996;8.268;2022-11-14T02:05:41;18.10;99.90
39237;DHT22;36851;49.996;8.268;2022-11-14T02:08:28;18.10;99.90
39237;DHT22;36851;49.996;8.268;2022-11-14T02:11:15;18.00;99.90
39237;DHT22;36851;49.996;8.268;2022-11-14T02:14:00;18.00;99.90
39237;DHT22;36851;49.996;8.268;2022-11-14T02:16:46;18.00;99.90
39237;DHT22;36851;49.996;8.268;2022-11-14T02:19:54;18.00;99.90
39237;DHT22;36851;49.996;8.268;2022-11-14T02:22:48;18.00;99.90
39237;DHT22;36851;49.996;8.268;2022-11-14T02:25:34;18.00;99.90
39237;DHT22;36851;49.996;8.268;2022-11-14T02:28:19;18.00;99.90
39237;DHT22;36851;49.996;8.268;2022-11-14T02:31:05;18.00;99.90
39237;DHT22;36851;49.996;8.268;2022-11-14T02:33:51;18.00;99.90
39237;DHT22;36851;49.996;8.268;2022-11-14T02:36:36;18.00;99.90
39237;DHT22;36851;49.996;8.268;2022-11-14T02:39:22;18.00;99.90
39237;DHT22;36851;49.996;8.268;2022-11-14T02:42:08;17.90;99.90
39237;DHT22;36851;49.996;8.268;2022-11-14T02:44:53;17.90;99.90
39237;DHT22;36851;49.996;8.268;2022-11-14T02:47:39;17.90;99.90
39237;DHT22;36851;49.996;8.268;2022-11-14T02:50:24;17.90;99.90
39237;DHT22;36851;49.996;8.268;2022-11-14T02:53:10;17.90;99.90
39237;DHT22;36851;49.996;8.268;2022-11-14T02:55:55;17.90;99.90
39237;DHT22;36851;49.996;8.268;2022-11-14T02:58:41;17.90;99.90
39237;DHT22;36851;49.996;8.268;2022-11-14T03:01:26;17.90;99.90
39237;DHT22;36851;49.996;8.268;2022-11-14T03:04:12;17.90;99.90
39237;DHT22;36851;49.996;8.268;2022-11-14T03:06:57;17.90;99.90
39237;DHT22;36851;49.996;8.268;2022-11-14T03:09:43;17.80;99.90
39237;DHT22;36851;49.996;8.268;2022-11-14T03:12:28;17.80;99.90
39237;DHT22;36851;49.996;8.268;2022-11-14T03:15:14;17.80;99.90
39237;DHT22;36851;49.996;8.268;2022-11-14T03:17:59;17.80;99.90
39237;DHT22;36851;49.996;8.268;2022-11-14T03:20:45;17.80;99.90
39237;DHT22;36851;49.996;8.268;2022-11-14T03:23:30;17.80;99.90
39237;DHT22;36851;49.996;8.268;2022-11-14T03:26:16;17.80;99.90
39237;DHT22;36851;49.996;8.268;2022-11-14T03:29:01;17.80;99.90
39237;DHT22;36851;49.996;8.268;2022-11-14T03:31:47;17.80;99.90
39237;DHT22;36851;49.996;8.268;2022-11-14T03:34:32;17.80;99.90
39237;DHT22;36851;49.996;8.268;2022-11-14T03:37:18;17.80;99.90
39237;DHT22;36851;49.996;8.268;2022-11-14T03:40:04;17.70;99.90
39237;DHT22;36851;49.996;8.268;2022-11-14T03:42:50;17.70;99.90
39237;DHT22;36851;49.996;8.268;2022-11-14T03:45:36;17.70;99.90
39237;DHT22;36851;49.996;8.268;2022-11-14T03:48:22;17.80;99.90
39237;DHT22;36851;49.996;8.268;2022-11-14T03:51:07;17.80;99.90
39237;DHT22;36851;49.996;8.268;2022-11-14T03:53:53;17.80;99.90
39237;DHT22;36851;49.996;8.268;2022-11-14T03:56:39;17.80;99.90
39237;DHT22;36851;49.996;8.268;2022-11-14T03:59:25;17.80;99.90
39237;DHT22;36851;49.996;8.268;2022-11-14T04:02:10;17.80;99.90
39237;DHT22;36851;49.996;8.268;2022-11-14T04:04:56;17.80;99.90
39237;DHT22;36851;49.996;8.268;2022-11-14T04:07:41;17.70;99.90
39237;DHT22;36851;49.996;8.268;2022-11-14T04:10:27;17.70;99.90
39237;DHT22;36851;49.996;8.268;2022-11-14T04:13:12;17.70;99.90
39237;DHT22;36851;49.996;8.268;2022-11-14T04:15:58;17.70;99.90
39237;DHT22;36851;49.996;8.268;2022-11-14T04:18:44;17.70;99.90
39237;DHT22;36851;49.996;8.268;2022-11-14T04:21:29;17.70;99.90
39237;DHT22;36851;49.996;8.268;2022-11-14T04:24:15;17.70;99.90
39237;DHT22;36851;49.996;8.268;2022-11-14T04:27:00;17.70;99.90
39237;DHT22;36851;49.996;8.268;2022-11-14T04:29:46;17.70;99.90
39237;DHT22;36851;49.996;8.268;2022-11-14T04:32:31;17.70;99.90
39237;DHT22;36851;49.996;8.268;2022-11-14T04:35:17;17.70;99.90
39237;DHT22;36851;49.996;8.268;2022-11-14T04:38:03;17.70;99.90
39237;DHT22;36851;49.996;8.268;2022-11-14T04:40:51;17.70;99.90
39237;DHT22;36851;49.996;8.268;2022-11-14T04:43:37;17.70;99.90
39237;DHT22;36851;49.996;8.268;2022-11-14T04:46:23;17.70;99.90
39237;DHT22;36851;49.996;8.268;2022-11-14T04:49:08;17.60;99.90
39237;DHT22;36851;49.996;8.268;2022-11-14T04:51:54;17.70;99.90
39237;DHT22;36851;49.996;8.268;2022-11-14T04:54:39;17.70;99.90
39237;DHT22;36851;49.996;8.268;2022-11-14T04:57:25;17.80;99.90
39237;DHT22;36851;49.996;8.268;2022-11-14T05:00:11;17.90;99.90
39237;DHT22;36851;49.996;8.268;2022-11-14T05:02:57;18.10;99.90
39237;DHT22;36851;49.996;8.268;2022-11-14T05:05:44;18.30;99.90
39237;DHT22;36851;49.996;8.268;2022-11-14T05:08:29;18.50;99.90
39237;DHT22;36851;49.996;8.268;2022-11-14T05:11:17;18.70;99.90
39237;DHT22;36851;49.996;8.268;2022-11-14T05:14:03;18.80;99.90
39237;DHT22;36851;49.996;8.268;2022-11-14T05:16:48;18.80;99.90
39237;DHT22;36851;49.996;8.268;2022-11-14T05:19:34;18.90;99.90
39237;DHT22;36851;49.996;8.268;2022-11-14T05:22:19;18.90;99.90
39237;DHT22;36851;49.996;8.268;2022-11-14T05:25:05;18.90;99.90
39237;DHT22;36851;49.996;8.268;2022-11-14T05:27:51;18.80;99.90
39237;DHT22;36851;49.996;8.268;2022-11-14T05:30:36;18.90;99.90
39237;DHT22;36851;49.996;8.268;2022-11-14T05:33:22;18.90;99.90
39237;DHT22;36851;49.996;8.268;2022-11-14T05:36:09;18.90;99.90
39237;DHT22;36851;49.996;8.268;2022-11-14T05:38:54;18.90;99.90
39237;DHT22;36851;49.996;8.268;2022-11-14T05:41:40;18.90;99.90
39237;DHT22;36851;49.996;8.268;2022-11-14T05:44:26;18.90;99.90
39237;DHT22;36851;49.996;8.268;2022-11-14T05:47:11;18.90;99.90
39237;DHT22;36851;49.996;8.268;2022-11-14T05:49:57;18.90;99.90
39237;DHT22;36851;49.996;8.268;2022-11-14T05:52:42;18.90;99.90
39237;DHT22;36851;49.996;8.268;2022-11-14T05:55:28;18.80;99.90
39237;DHT22;36851;49.996;8.268;2022-11-14T05:58:13;18.90;99.90
39237;DHT22;36851;49.996;8.268;2022-11-14T06:03:48;18.80;99.90
39237;DHT22;36851;49.996;8.268;2022-11-14T06:06:33;18.90;99.90
39237;DHT22;36851;49.996;8.268;2022-11-14T06:09:19;19.00;99.90
39237;DHT22;36851;49.996;8.268;2022-11-14T06:12:05;19.00;99.90
39237;DHT22;36851;49.996;8.268;2022-11-14T06:14:52;19.00;99.90
39237;DHT22;36851;49.996;8.268;2022-11-14T06:17:37;19.10;99.90
39237;DHT22;36851;49.996;8.268;2022-11-14T06:20:22;19.20;99.90
39237;DHT22;36851;49.996;8.268;2022-11-14T06:23:08;19.20;99.90
39237;DHT22;36851;49.996;8.268;2022-11-14T06:25:58;19.30;99.90
39237;DHT22;36851;49.996;8.268;2022-11-14T06:28:45;19.40;99.90
39237;DHT22;36851;49.996;8.268;2022-11-14T06:31:30;19.40;99.90
39237;DHT22;36851;49.996;8.268;2022-11-14T06:34:16;19.40;99.90
39237;DHT22;36851;49.996;8.268;2022-11-14T06:37:03;19.50;99.90
39237;DHT22;36851;49.996;8.268;2022-11-14T06:39:48;19.40;99.90
39237;DHT22;36851;49.996;8.268;2022-11-14T06:42:34;19.40;99.90
39237;DHT22;36851;49.996;8.268;2022-11-14T06:45:19;19.40;99.90
39237;DHT22;36851;49.996;8.268;2022-11-14T06:48:05;19.40;99.90
39237;DHT22;36851;49.996;8.268;2022-11-14T06:50:51;19.40;99.90
39237;DHT22;36851;49.996;8.268;2022-11-14T06:53:37;19.40;99.90
39237;DHT22;36851;49.996;8.268;2022-11-14T06:56:23;19.40;99.90
39237;DHT22;36851;49.996;8.268;2022-11-14T06:59:09;19.40;99.90
39237;DHT22;36851;49.996;8.268;2022-11-14T07:01:54;19.40;99.90
39237;DHT22;36851;49.996;8.268;2022-11-14T07:04:40;19.40;99.90
39237;DHT22;36851;49.996;8.268;2022-11-14T07:07:26;19.30;99.90
39237;DHT22;36851;49.996;8.268;2022-11-14T07:10:13;19.30;99.90
39237;DHT22;36851;49.996;8.268;2022-11-14T07:12:58;19.30;99.90
39237;DHT22;36851;49.996;8.268;2022-11-14T07:15:53;19.20;99.90
39237;DHT22;36851;49.996;8.268;2022-11-14T07:18:39;19.20;99.90
39237;DHT22;36851;49.996;8.268;2022-11-14T07:21:25;19.20;99.90
39237;DHT22;36851;49.996;8.268;2022-11-14T07:24:12;19.10;99.90
39237;DHT22;36851;49.996;8.268;2022-11-14T07:26:57;18.00;99.90
39237;DHT22;36851;49.996;8.268;2022-11-14T07:29:43;17.80;99.90
39237;DHT22;36851;49.996;8.268;2022-11-14T07:32:28;18.10;99.90
39237;DHT22;36851;49.996;8.268;2022-11-14T07:35:14;18.40;99.90
39237;DHT22;36851;49.996;8.268;2022-11-14T07:38:00;18.60;99.90
39237;DHT22;36851;49.996;8.268;2022-11-14T07:40:56;18.70;99.90
39237;DHT22;36851;49.996;8.268;2022-11-14T07:43:44;18.90;99.90
39237;DHT22;36851;49.996;8.268;2022-11-14T07:46:30;19.10;99.90
39237;DHT22;36851;49.996;8.268;2022-11-14T07:49:16;19.10;99.90
39237;DHT22;36851;49.996;8.268;2022-11-14T07:52:01;19.20;99.90
39237;DHT22;36851;49.996;8.268;2022-11-14T07:54:47;19.20;99.90
39237;DHT22;36851;49.996;8.268;2022-11-14T07:57:33;19.40;99.90
39237;DHT22;36851;49.996;8.268;2022-11-14T08:00:25;19.60;99.90
39237;DHT22;36851;49.996;8.268;2022-11-14T08:03:11;19.90;99.90
39237;DHT22;36851;49.996;8.268;2022-11-14T08:06:03;20.20;99.90
39237;DHT22;36851;49.996;8.268;2022-11-14T08:08:49;20.40;99.90
39237;DHT22;36851;49.996;8.268;2022-11-14T08:11:35;20.40;99.90
39237;DHT22;36851;49.996;8.268;2022-11-14T08:14:33;20.50;99.90
39237;DHT22;36851;49.996;8.268;2022-11-14T08:17:19;20.50;99.90
39237;DHT22;36851;49.996;8.268;2022-11-14T08:20:05;20.50;99.90
39237;DHT22;36851;49.996;8.268;2022-11-14T08:22:52;20.50;99.90
39237;DHT22;36851;49.996;8.268;2022-11-14T08:25:38;20.50;99.90
39237;DHT22;36851;49.996;8.268;2022-11-14T08:28:23;20.40;99.90
39237;DHT22;36851;49.996;8.268;2022-11-14T08:31:09;20.40;99.90
39237;DHT22;36851;49.996;8.268;2022-11-14T08:33:55;20.40;99.90
39237;DHT22;36851;49.996;8.268;2022-11-14T08:36:41;20.30;99.90
39237;DHT22;36851;49.996;8.268;2022-11-14T08:39:26;20.20;99.90
39237;DHT22;36851;49.996;8.268;2022-11-14T08:42:11;20.20;99.90
39237;DHT22;36851;49.996;8.268;2022-11-14T08:44:57;20.20;99.90
39237;DHT22;36851;49.996;8.268;2022-11-14T08:47:49;20.20;99.90
39237;DHT22;36851;49.996;8.268;2022-11-14T08:50:34;20.10;99.90
39237;DHT22;36851;49.996;8.268;2022-11-14T08:53:20;20.20;99.90
39237;DHT22;36851;49.996;8.268;2022-11-14T08:56:05;20.20;99.90
39237;DHT22;36851;49.996;8.268;2022-11-14T08:58:51;20.10;99.90
39237;DHT22;36851;49.996;8.268;2022-11-14T09:01:37;20.10;99.90
39237;DHT22;36851;49.996;8.268;2022-11-14T09:04:22;20.10;99.90
39237;DHT22;36851;49.996;8.268;2022-11-14T09:07:08;20.10;99.90
39237;DHT22;36851;49.996;8.268;2022-11-14T09:09:54;20.00;99.90
39237;DHT22;36851;49.996;8.268;2022-11-14T09:12:39;20.00;99.90
39237;DHT22;36851;49.996;8.268;2022-11-14T09:15:28;20.00;99.90
39237;DHT22;36851;49.996;8.268;2022-11-14T09:18:13;19.90;99.90
39237;DHT22;36851;49.996;8.268;2022-11-14T09:21:00;19.90;99.90
39237;DHT22;36851;49.996;8.268;2022-11-14T09:23:46;19.90;99.90
39237;DHT22;36851;49.996;8.268;2022-11-14T09:26:32;19.90;99.90
39237;DHT22;36851;49.996;8.268;2022-11-14T09:29:17;19.80;99.90
39237;DHT22;36851;49.996;8.268;2022-11-14T09:32:03;19.80;99.90
39237;DHT22;36851;49.996;8.268;2022-11-14T09:34:49;19.80;99.90
39237;DHT22;36851;49.996;8.268;2022-11-14T09:37:35;19.70;99.90
39237;DHT22;36851;49.996;8.268;2022-11-14T09:40:20;19.70;99.90
39237;DHT22;36851;49.996;8.268;2022-11-14T09:43:16;19.70;99.90
39237;DHT22;36851;49.996;8.268;2022-11-14T09:46:15;19.70;99.90
39237;DHT22;36851;49.996;8.268;2022-11-14T09:49:02;19.60;99.90
39237;DHT22;36851;49.996;8.268;2022-11-14T09:51:53;19.60;99.90
39237;DHT22;36851;49.996;8.268;2022-11-14T09:55:00;19.60;99.90
39237;DHT22;36851;49.996;8.268;2022-11-14T09:57:47;19.60;99.90
39237;DHT22;36851;49.996;8.268;2022-11-14T10:00:47;19.50;99.90
39237;DHT22;36851;49.996;8.268;2022-11-14T10:03:48;19.50;99.90
39237;DHT22;36851;49.996;8.268;2022-11-14T10:12:22;19.50;99.90
39237;DHT22;36851;49.996;8.268;2022-11-14T10:15:21;19.50;99.90
39237;DHT22;36851;49.996;8.268;2022-11-14T10:20:54;19.50;99.90
39237;DHT22;36851;49.996;8.268;2022-11-14T10:26:34;19.50;99.90
39237;DHT22;36851;49.996;8.268;2022-11-14T10:35:22;19.40;99.90
39237;DHT22;36851;49.996;8.268;2022-11-14T10:38:10;19.40;99.90
39237;DHT22;36851;49.996;8.268;2022-11-14T10:40:58;19.40;99.90
39237;DHT22;36851;49.996;8.268;2022-11-14T10:43:46;19.40;99.90
39237;DHT22;36851;49.996;8.268;2022-11-14T10:46:33;19.40;99.90
39237;DHT22;36851;49.996;8.268;2022-11-14T10:49:22;19.40;99.90
39237;DHT22;36851;49.996;8.268;2022-11-14T10:52:12;19.40;99.90
39237;DHT22;36851;49.996;8.268;2022-11-14T10:54:59;19.40;99.90
39237;DHT22;36851;49.996;8.268;2022-11-14T10:57:47;19.40;99.90
39237;DHT22;36851;49.996;8.268;2022-11-14T11:00:33;19.30;99.90
39237;DHT22;36851;49.996;8.268;2022-11-14T11:03:18;19.30;99.90
39237;DHT22;36851;49.996;8.268;2022-11-14T11:06:04;19.30;99.90
39237;DHT22;36851;49.996;8.268;2022-11-14T11:08:50;19.30;99.90
39237;DHT22;36851;49.996;8.268;2022-11-14T11:11:58;19.20;99.90
39237;DHT22;36851;49.996;8.268;2022-11-14T11:14:47;19.20;99.90
39237;DHT22;36851;49.996;8.268;2022-11-14T11:17:33;19.20;99.90
39237;DHT22;36851;49.996;8.268;2022-11-14T11:20:32;19.20;99.90
39237;DHT22;36851;49.996;8.268;2022-11-14T11:23:21;19.20;99.90
39237;DHT22;36851;49.996;8.268;2022-11-14T11:26:09;19.20;99.90
39237;DHT22;36851;49.996;8.268;2022-11-14T11:29:13;19.10;99.90
39237;DHT22;36851;49.996;8.268;2022-11-14T11:31:59;19.10;99.90
39237;DHT22;36851;49.996;8.268;2022-11-14T11:34:45;19.10;99.90
39237;DHT22;36851;49.996;8.268;2022-11-14T11:40:38;19.10;99.90
39237;DHT22;36851;49.996;8.268;2022-11-14T11:43:37;19.10;99.90
39237;DHT22;36851;49.996;8.268;2022-11-14T11:55:17;19.30;99.90
39237;DHT22;36851;49.996;8.268;2022-11-14T11:58:05;19.20;99.90
39237;DHT22;36851;49.996;8.268;2022-11-14T12:00:54;19.20;99.90
39237;DHT22;36851;49.996;8.268;2022-11-14T12:03:41;19.30;99.90
39237;DHT22;36851;49.996;8.268;2022-11-14T12:06:28;19.40;99.90
39237;DHT22;36851;49.996;8.268;2022-11-14T12:09:35;19.50;99.90
39237;DHT22;36851;49.996;8.268;2022-11-14T12:15:39;19.70;99.90
39237;DHT22;36851;49.996;8.268;2022-11-14T12:24:42;19.70;99.90
39237;DHT22;36851;49.996;8.268;2022-11-14T12:30:39;19.70;99.90
39237;DHT22;36851;49.996;8.268;2022-11-14T12:33:27;19.60;99.90
39237;DHT22;36851;49.996;8.268;2022-11-14T12:36:14;19.60;99.90
39237;DHT22;36851;49.996;8.268;2022-11-14T12:39:01;19.60;99.90
39237;DHT22;36851;49.996;8.268;2022-11-14T12:41:46;19.60;99.90
39237;DHT22;36851;49.996;8.268;2022-11-14T12:44:34;19.50;99.90
39237;DHT22;36851;49.996;8.268;2022-11-14T12:47:21;19.50;99.90
39237;DHT22;36851;49.996;8.268;2022-11-14T12:50:30;19.50;99.90
39237;DHT22;36851;49.996;8.268;2022-11-14T13:02:05;19.40;99.90
39237;DHT22;36851;49.996;8.268;2022-11-14T13:05:20;19.50;99.90
39237;DHT22;36851;49.996;8.268;2022-11-14T13:10:56;19.50;99.90
39237;DHT22;36851;49.996;8.268;2022-11-14T13:14:00;19.50;99.90
39237;DHT22;36851;49.996;8.268;2022-11-14T13:20:30;19.50;99.90
39237;DHT22;36851;49.996;8.268;2022-11-14T13:50:18;19.60;99.90
39237;DHT22;36851;49.996;8.268;2022-11-14T13:53:21;19.60;99.90
39237;DHT22;36851;49.996;8.268;2022-11-14T13:59:10;19.60;99.90
39237;DHT22;36851;49.996;8.268;2022-11-14T14:02:19;19.60;99.90
39237;DHT22;36851;49.996;8.268;2022-11-14T14:05:25;19.60;99.90
39237;DHT22;36851;49.996;8.268;2022-11-14T14:14:21;19.60;99.90
39237;DHT22;36851;49.996;8.268;2022-11-14T14:17:14;19.60;99.90
39237;DHT22;36851;49.996;8.268;2022-11-14T14:20:20;19.50;99.90
39237;DHT22;36851;49.996;8.268;2022-11-14T14:23:23;19.60;99.90
39237;DHT22;36851;49.996;8.268;2022-11-14T14:29:00;19.50;99.90
39237;DHT22;36851;49.996;8.268;2022-11-14T14:31:51;19.50;99.90
39237;DHT22;36851;49.996;8.268;2022-11-14T14:34:36;19.50;99.90
39237;DHT22;36851;49.996;8.268;2022-11-14T14:37:24;19.50;99.90
39237;DHT22;36851;49.996;8.268;2022-11-14T14:40:21;19.50;99.90
39237;DHT22;36851;49.996;8.268;2022-11-14T14:43:11;19.50;99.90
39237;DHT22;36851;49.996;8.268;2022-11-14T14:45:58;19.50;99.90
39237;DHT22;36851;49.996;8.268;2022-11-14T14:48:43;19.50;99.90
39237;DHT22;36851;49.996;8.268;2022-11-14T14:51:34;19.50;99.90
39237;DHT22;36851;49.996;8.268;2022-11-14T14:54:20;19.40;99.90
39237;DHT22;36851;49.996;8.268;2022-11-14T14:57:14;19.40;99.90
39237;DHT22;36851;49.996;8.268;2022-11-14T15:00:04;19.40;99.90
39237;DHT22;36851;49.996;8.268;2022-11-14T15:02:51;19.40;99.90
39237;DHT22;36851;49.996;8.268;2022-11-14T15:05:38;19.50;99.90
39237;DHT22;36851;49.996;8.268;2022-11-14T15:08:23;19.60;99.90
39237;DHT22;36851;49.996;8.268;2022-11-14T15:11:10;19.60;99.90
39237;DHT22;36851;49.996;8.268;2022-11-14T15:13:56;19.60;99.90
39237;DHT22;36851;49.996;8.268;2022-11-14T15:16:43;19.70;99.90
39237;DHT22;36851;49.996;8.268;2022-11-14T15:19:32;19.70;99.90
39237;DHT22;36851;49.996;8.268;2022-11-14T15:22:23;19.70;99.90
39237;DHT22;36851;49.996;8.268;2022-11-14T15:27:54;19.70;99.90
39237;DHT22;36851;49.996;8.268;2022-11-14T15:30:53;19.70;99.90
39237;DHT22;36851;49.996;8.268;2022-11-14T15:33:40;19.60;99.90
39237;DHT22;36851;49.996;8.268;2022-11-14T15:36:25;19.60;99.90
39237;DHT22;36851;49.996;8.268;2022-11-14T15:39:21;19.60;99.90
39237;DHT22;36851;49.996;8.268;2022-11-14T15:45:20;19.50;99.90
39237;DHT22;36851;49.996;8.268;2022-11-14T15:48:10;19.50;99.90
39237;DHT22;36851;49.996;8.268;2022-11-14T15:50:57;19.50;99.90
39237;DHT22;36851;49.996;8.268;2022-11-14T15:53:46;19.50;99.90
39237;DHT22;36851;49.996;8.268;2022-11-14T15:56:34;19.50;99.90
39237;DHT22;36851;49.996;8.268;2022-11-14T15:59:19;19.40;99.90
39237;DHT22;36851;49.996;8.268;2022-11-14T16:05:00;19.40;99.90
39237;DHT22;36851;49.996;8.268;2022-11-14T16:07:48;19.40;99.90
39237;DHT22;36851;49.996;8.268;2022-11-14T16:10:33;19.40;99.90
39237;DHT22;36851;49.996;8.268;2022-11-14T16:13:19;19.40;99.90
39237;DHT22;36851;49.996;8.268;2022-11-14T16:16:05;19.40;99.90
39237;DHT22;36851;49.996;8.268;2022-11-14T16:18:51;19.30;99.90
39237;DHT22;36851;49.996;8.268;2022-11-14T16:21:36;19.30;99.90
39237;DHT22;36851;49.996;8.268;2022-11-14T16:24:22;19.30;99.90
39237;DHT22;36851;49.996;8.268;2022-11-14T16:27:08;19.30;99.90
39237;DHT22;36851;49.996;8.268;2022-11-14T16:29:53;19.30;99.90
39237;DHT22;36851;49.996;8.268;2022-11-14T16:32:39;19.40;99.90
39237;DHT22;36851;49.996;8.268;2022-11-14T16:35:25;19.40;99.90
39237;DHT22;36851;49.996;8.268;2022-11-14T16:38:12;19.40;99.90
39237;DHT22;36851;49.996;8.268;2022-11-14T16:40:58;19.40;99.90
39237;DHT22;36851;49.996;8.268;2022-11-14T16:43:44;19.40;99.90
39237;DHT22;36851;49.996;8.268;2022-11-14T16:46:30;19.40;99.90
39237;DHT22;36851;49.996;8.268;2022-11-14T16:49:16;19.40;99.90
39237;DHT22;36851;49.996;8.268;2022-11-14T16:52:04;19.40;99.90
39237;DHT22;36851;49.996;8.268;2022-11-14T16:54:52;19.50;99.90
39237;DHT22;36851;49.996;8.268;2022-11-14T16:57:38;19.50;99.90
39237;DHT22;36851;49.996;8.268;2022-11-14T17:00:24;19.50;99.90
39237;DHT22;36851;49.996;8.268;2022-11-14T17:03:10;19.50;99.90
39237;DHT22;36851;49.996;8.268;2022-11-14T17:05:56;19.60;99.90
39237;DHT22;36851;49.996;8.268;2022-11-14T17:08:42;19.60;99.90
39237;DHT22;36851;49.996;8.268;2022-11-14T17:11:28;19.80;99.90
39237;DHT22;36851;49.996;8.268;2022-11-14T17:14:14;20.00;99.90
39237;DHT22;36851;49.996;8.268;2022-11-14T17:17:01;20.10;99.90
39237;DHT22;36851;49.996;8.268;2022-11-14T17:19:46;20.20;99.90
39237;DHT22;36851;49.996;8.268;2022-11-14T17:22:33;20.30;99.90
39237;DHT22;36851;49.996;8.268;2022-11-14T17:25:18;20.40;99.90
39237;DHT22;36851;49.996;8.268;2022-11-14T17:28:04;20.50;99.90
39237;DHT22;36851;49.996;8.268;2022-11-14T17:30:49;20.60;99.90
39237;DHT22;36851;49.996;8.268;2022-11-14T17:33:35;20.60;99.90
39237;DHT22;36851;49.996;8.268;2022-11-14T17:36:21;20.60;99.90
39237;DHT22;36851;49.996;8.268;2022-11-14T17:39:08;20.50;99.90
39237;DHT22;36851;49.996;8.268;2022-11-14T17:41:53;20.40;99.90
39237;DHT22;36851;49.996;8.268;2022-11-14T17:44:39;20.40;99.90
39237;DHT22;36851;49.996;8.268;2022-11-14T17:47:25;20.40;99.90
39237;DHT22;36851;49.996;8.268;2022-11-14T17:50:11;20.50;99.90
39237;DHT22;36851;49.996;8.268;2022-11-14T17:52:57;20.40;99.90
39237;DHT22;36851;49.996;8.268;2022-11-14T17:55:42;20.50;99.90
39237;DHT22;36851;49.996;8.268;2022-11-14T17:58:29;20.50;99.90
39237;DHT22;36851;49.996;8.268;2022-11-14T18:01:17;20.50;99.90
39237;DHT22;36851;49.996;8.268;2022-11-14T18:04:03;20.50;99.90
39237;DHT22;36851;49.996;8.268;2022-11-14T18:06:51;20.40;99.90
39237;DHT22;36851;49.996;8.268;2022-11-14T18:09:37;20.40;99.90
39237;DHT22;36851;49.996;8.268;2022-11-14T18:12:23;20.40;99.90
39237;DHT22;36851;49.996;8.268;2022-11-14T18:15:09;20.40;99.90
39237;DHT22;36851;49.996;8.268;2022-11-14T18:17:55;20.30;99.90
39237;DHT22;36851;49.996;8.268;2022-11-14T18:20:41;20.40;99.90
39237;DHT22;36851;49.996;8.268;2022-11-14T18:23:26;20.30;99.90
39237;DHT22;36851;49.996;8.268;2022-11-14T18:26:16;20.30;99.90
39237;DHT22;36851;49.996;8.268;2022-11-14T18:29:02;20.30;99.90
39237;DHT22;36851;49.996;8.268;2022-11-14T18:31:48;20.30;99.90
39237;DHT22;36851;49.996;8.268;2022-11-14T18:34:33;20.20;99.90
39237;DHT22;36851;49.996;8.268;2022-11-14T18:37:22;20.20;99.90
39237;DHT22;36851;49.996;8.268;2022-11-14T18:40:08;20.10;99.90
39237;DHT22;36851;49.996;8.268;2022-11-14T18:43:01;20.10;99.90
39237;DHT22;36851;49.996;8.268;2022-11-14T18:45:46;20.10;99.90
39237;DHT22;36851;49.996;8.268;2022-11-14T18:48:33;20.00;99.90
39237;DHT22;36851;49.996;8.268;2022-11-14T18:51:20;20.00;99.90
39237;DHT22;36851;49.996;8.268;2022-11-14T18:54:10;20.00;99.90
39237;DHT22;36851;49.996;8.268;2022-11-14T18:56:56;20.00;99.90
39237;DHT22;36851;49.996;8.268;2022-11-14T18:59:42;20.00;99.90
39237;DHT22;36851;49.996;8.268;2022-11-14T19:02:28;20.10;99.90
39237;DHT22;36851;49.996;8.268;2022-11-14T19:05:13;20.10;99.90
39237;DHT22;36851;49.996;8.268;2022-11-14T19:07:59;20.00;99.90
39237;DHT22;36851;49.996;8.268;2022-11-14T19:10:45;20.10;99.90
39237;DHT22;36851;49.996;8.268;2022-11-14T19:13:31;20.10;99.90
39237;DHT22;36851;49.996;8.268;2022-11-14T19:16:17;20.20;99.90
39237;DHT22;36851;49.996;8.268;2022-11-14T19:19:03;20.20;99.90
39237;DHT22;36851;49.996;8.268;2022-11-14T19:21:48;20.30;99.90
39237;DHT22;36851;49.996;8.268;2022-11-14T19:24:37;20.20;99.90
39237;DHT22;36851;49.996;8.268;2022-11-14T19:27:27;20.20;99.90